Главная страница
METAR-TAF:

METAR-TAF

Аэропорты :

Нукус, Узбекистан

широта: 42-28-48N, долгота: 059-37-48E, высота над уровнем моря: м

Текущие метеонаблюдения

Эта сводка был подготовлена 49 минут назад, в 10:30 UTC
Ветер 10 Узел от западный
Температура 32°C
Влажность 26%
Давление 1011 hPa
Видимость 10 км и более
Нет облачности ниже 1500 м, и нет кучево-дождевой облачности

METAR: UTNN 261030Z 28010KT CAVOK 32/10 Q1011 R33/CLRD60 NOSIG

Время: 16:19 (11:19 UTC)

Прогноз

Эта сводка был подготовлена 6 часа и 19 минут назад, в 05:00 UTC
Прогноз действительный с 26-го 06 UTC до 27-го 06 UTC
Ветер 12 Узел от западный
Видимость 10 км и более
Отдельные облака на высоте 5000 фута
Отдельные облака на высоте 10000 фута
временами
С 26-го 06 UTC до 26-го 14 UTC
Ветер 14 Узел от юго-западный с порывами до 24 Узел
временами
С 26-го 20 UTC до 27-го 04 UTC
Ветер 4 Узел переменных направлений

TAF: UTNN 260500Z 2606/2706 28012KT 9999 SCT050 SCT100 TEMPO 2606/2614 23014G24KT TEMPO 2620/2704 VRB04KT

Метеонаблюдения и прогнозы для более 4000 аэропортов (сводки METAR и TAF).

Имеющиеся станции представлены на карте желтыми и красными точками.

Чтобы увидеть название станции, наведите на нее мышь.

Затем щелкните, чтобы увидеть метеонаблюдения и метеопрогнозы.

Управление картой: чтобы увеличить масштаб, щелкните зеленые кнопки с черным крестиком; чтобы уменьшить масштаб, щелкните зеленую кнопку с тире; для просмотра соседних карт щелкайте зеленые стрелки.


METAR-TAF: